Stations météo

réclame
Mon MeteoGroup
Merida, Espagne (8331): Température de l'air & dewpoint: 12.01.2019 12:00:00 - 18.01.2019 12:00:00 (CET)Merida, Espagne (8331): Vitesse du vent & gusts: 12.01.2019 12:00:00 - 18.01.2019 12:00:00 (CET)Merida, Espagne (8331): Direction du vent: 12.01.2019 12:00:00 - 18.01.2019 12:00:00 (CET)Merida, Espagne (8331): Quantités de précipitations: 12.01.2019 12:00:00 - 18.01.2019 12:00:00 (CET)
Date & Time tt [°C] td [°C] ff [km/h] ff [knt] fx [km/h] fx [knt] dd rr [mm]
18.01.2019 12:00:00 7,7 3,9 0 0 4 2 N 0,0
18.01.2019 11:00:00 3,8 3,6 3 1 5 3 E 0,0
18.01.2019 10:00:00 1,8 1,7 4 2 7 4 E 0,0
18.01.2019 09:00:00 0,0 0,0 0 0 10 6 E 0,0
18.01.2019 08:00:00 -0,4 -0,5 8 5 11 6 E 0,0
18.01.2019 07:00:00 -1,6 -1,7 0 0 0 0 N -
18.01.2019 06:00:00 -1,4 -1,4 0 0 0 0 N 0,0
18.01.2019 05:00:00 -0,3 -0,5 0 0 0 0 N 0,0
18.01.2019 04:00:00 -0,4 -0,5 0 0 0 0 N 0,0
18.01.2019 03:00:00 0,4 0,2 0 0 9 5 N 0,0
18.01.2019 02:00:00 -0,5 -0,7 0 0 0 0 N 0,0
18.01.2019 01:00:00 0,3 0,2 0 0 7 4 N -
18.01.2019 00:00:00 1,1 1,1 0 0 0 0 N 0,0
17.01.2019 23:00:00 1,9 1,7 0 0 8 4 N 0,0
17.01.2019 22:00:00 2,7 2,5 0 0 2 1 N 0,0
17.01.2019 21:00:00 3,4 3,0 0 0 0 0 N 0,0
17.01.2019 20:00:00 5,0 3,6 0 0 0 0 N 0,0
17.01.2019 19:00:00 6,1 2,3 0 0 9 5 N -
17.01.2019 18:00:00 11,0 3,9 1 1 13 7 N 0,0
17.01.2019 17:00:00 11,4 3,6 5 3 16 9 N 0,0
17.01.2019 16:00:00 13,5 4,6 5 3 17 9 NW 0,0
17.01.2019 15:00:00 11,4 3,6 6 4 13 7 N 0,0
17.01.2019 14:00:00 12,6 4,8 3 2 11 6 W 0,0
17.01.2019 13:00:00 13,2 5,3 1 1 8 5 NW -
17.01.2019 12:00:00 11,6 5,6 1 0 8 5 ENE 0,0
17.01.2019 11:00:00 8,4 6,8 0 0 6 4 NW 0,0
17.01.2019 10:00:00 7,2 7,0 4 2 6 3 W 0,0
17.01.2019 09:00:00 5,8 5,6 0 0 10 5 N 0,0
17.01.2019 08:00:00 6,5 6,4 0 0 6 3 N 0,0
17.01.2019 07:00:00 6,8 6,7 1 0 4 2 WNW -
17.01.2019 06:00:00 6,7 6,5 3 2 6 3 SW 0,0
17.01.2019 05:00:00 6,6 6,4 0 0 0 0 N 0,0
17.01.2019 04:00:00 6,6 5,9 0 0 6 3 N 0,0
17.01.2019 03:00:00 7,4 6,5 2 1 10 5 SSE 0,0
17.01.2019 02:00:00 7,4 6,4 0 0 0 0 N 0,0
17.01.2019 01:00:00 7,6 6,5 0 0 0 0 N -
17.01.2019 00:00:00 7,7 6,7 0 0 0 0 N 0,0
16.01.2019 23:00:00 7,3 6,4 0 0 0 0 N 0,0
16.01.2019 22:00:00 7,0 5,9 0 0 0 0 N 0,0
16.01.2019 21:00:00 7,7 5,9 0 0 0 0 N 0,0
16.01.2019 20:00:00 7,9 5,5 0 0 0 0 N 0,0
16.01.2019 19:00:00 9,1 5,6 0 0 4 2 N -
16.01.2019 18:00:00 10,4 5,6 0 0 6 4 N 0,0
16.01.2019 17:00:00 11,2 5,3 3 2 11 6 NNW 0,0
16.01.2019 16:00:00 12,3 5,5 6 4 13 7 NW 0,0
16.01.2019 15:00:00 12,3 6,4 2 1 8 4 NE 0,0
16.01.2019 14:00:00 10,6 5,9 4 2 11 6 NE 0,0
16.01.2019 13:00:00 9,5 5,8 8 4 12 6 E -
16.01.2019 12:00:00 8,9 5,5 6 3 14 8 ENE 0,0
16.01.2019 11:00:00 6,8 5,1 11 6 17 9 E 0,0
16.01.2019 10:00:00 5,9 5,3 8 4 16 9 E 0,0
16.01.2019 09:00:00 5,1 5,0 8 5 14 7 E 0,0
16.01.2019 08:00:00 4,5 4,3 9 5 12 6 E 0,0
16.01.2019 07:00:00 3,4 3,2 0 0 5 3 N -
16.01.2019 06:00:00 3,6 3,4 3 2 8 4 E 0,0
16.01.2019 05:00:00 2,3 2,1 0 0 0 0 N 0,0
16.01.2019 04:00:00 1,8 1,7 0 0 0 0 N 0,0
16.01.2019 03:00:00 2,0 1,9 1 1 7 4 E 0,0
16.01.2019 02:00:00 1,0 0,9 0 0 0 0 N 0,0
16.01.2019 01:00:00 1,2 1,1 0 0 0 0 N -
16.01.2019 00:00:00 1,6 1,5 0 0 0 0 N 0,0
15.01.2019 23:00:00 2,1 1,9 0 0 0 0 N 0,0
15.01.2019 22:00:00 2,7 2,5 0 0 0 0 N 0,0
15.01.2019 21:00:00 4,7 3,6 0 0 0 0 N 0,0
15.01.2019 20:00:00 6,0 3,6 0 0 6 4 N 0,0
15.01.2019 19:00:00 7,8 3,9 0 0 8 5 WSW -
15.01.2019 18:00:00 11,4 3,4 5 3 10 6 WSW 0,0
15.01.2019 17:00:00 15,7 3,2 3 1 10 5 W 0,0
15.01.2019 16:00:00 16,3 3,8 0 0 4 2 SSW 0,0
15.01.2019 15:00:00 16,0 4,1 0 0 10 5 NE 0,0
15.01.2019 14:00:00 14,3 4,8 0 0 12 6 ENE 0,0
15.01.2019 13:00:00 12,2 5,1 4 2 14 8 E -
15.01.2019 12:00:00 8,9 4,5 8 4 14 7 E 0,0
15.01.2019 11:00:00 6,5 4,6 9 5 16 8 ESE 0,0
15.01.2019 10:00:00 3,2 3,0 6 3 15 8 E 0,0
15.01.2019 09:00:00 2,0 1,9 4 2 11 6 E 0,0
15.01.2019 08:00:00 1,8 1,7 2 1 12 7 ESE 0,0
15.01.2019 07:00:00 1,5 1,3 8 4 12 6 E -
15.01.2019 06:00:00 1,3 1,1 8 4 10 5 E 0,0
15.01.2019 05:00:00 2,1 1,9 6 3 11 6 E 0,0
15.01.2019 04:00:00 2,0 1,9 7 4 26 14 E 0,0
15.01.2019 03:00:00 2,5 2,1 5 3 8 4 ENE 0,0
15.01.2019 02:00:00 3,5 3,0 5 3 8 4 ENE 0,0
15.01.2019 01:00:00 3,4 3,2 4 2 7 4 ENE -
15.01.2019 00:00:00 2,7 2,5 0 0 6 4 N 0,0
14.01.2019 23:00:00 2,2 1,9 3 1 7 4 E 0,0
14.01.2019 22:00:00 3,2 2,5 0 0 7 4 N 0,0
14.01.2019 21:00:00 2,7 1,3 0 0 0 0 N 0,0
14.01.2019 20:00:00 4,1 1,9 0 0 5 3 N 0,0
14.01.2019 19:00:00 6,2 2,5 0 0 5 3 SSW -
14.01.2019 18:00:00 11,4 2,5 0 0 5 3 SW 0,0
14.01.2019 17:00:00 16,4 3,8 0 0 7 4 W 0,0
14.01.2019 16:00:00 16,4 3,4 0 0 8 5 WNW 0,0
14.01.2019 15:00:00 15,9 3,9 0 0 6 3 W 0,0
14.01.2019 14:00:00 13,4 2,9 0 0 7 4 N 0,0
14.01.2019 13:00:00 - - - - - - - -
14.01.2019 12:00:00 8,4 3,0 6 3 14 8 E 0,0
14.01.2019 11:00:00 5,2 2,3 8 4 13 7 E 0,1
14.01.2019 10:00:00 3,1 1,7 6 3 10 5 E 0,0
14.01.2019 09:00:00 0,0 0,0 8 4 13 7 E 0,0
14.01.2019 08:00:00 -0,5 -0,7 8 4 12 7 E 0,0
14.01.2019 07:00:00 0,0 0,0 9 5 12 6 E -
14.01.2019 06:00:00 -0,8 -1,0 4 2 9 5 SE 0,0
14.01.2019 05:00:00 0,4 0,2 3 2 10 5 NE 0,0
14.01.2019 04:00:00 -0,4 -0,5 0 0 0 0 N 0,0
14.01.2019 03:00:00 -2,1 -2,2 0 0 0 0 N 0,0
14.01.2019 02:00:00 -1,2 -1,4 0 0 0 0 N 0,0
14.01.2019 01:00:00 0,1 0,0 0 0 0 0 N -
14.01.2019 00:00:00 -0,5 -0,7 0 0 0 0 N 0,0
13.01.2019 23:00:00 0,3 0,0 0 0 0 0 N 0,0
13.01.2019 22:00:00 2,0 1,1 0 0 0 0 N 0,0
13.01.2019 21:00:00 1,8 0,2 0 0 0 0 N 0,0
13.01.2019 20:00:00 3,1 0,4 0 0 0 0 N 0,0
13.01.2019 19:00:00 4,7 0,0 0 0 0 0 N -
13.01.2019 18:00:00 11,2 -0,3 0 0 0 0 N 0,0
13.01.2019 17:00:00 15,8 1,1 0 0 7 4 N 0,0
13.01.2019 16:00:00 15,8 1,5 0 0 6 4 E 0,0
13.01.2019 15:00:00 15,0 1,5 0 0 9 5 ESE 0,0
13.01.2019 14:00:00 13,5 2,5 0 0 11 6 E 0,0
13.01.2019 13:00:00 10,8 2,3 5 3 13 7 ENE -
13.01.2019 12:00:00 7,1 2,1 7 4 12 7 E 0,0
13.01.2019 11:00:00 5,7 2,7 7 4 11 6 E 0,0
13.01.2019 10:00:00 1,9 0,2 5 3 11 6 ENE 0,0
13.01.2019 09:00:00 -1,3 -1,4 7 4 11 6 E 0,0
13.01.2019 08:00:00 -1,1 -1,2 6 4 10 5 E 0,0
13.01.2019 07:00:00 -0,4 -0,5 4 2 8 5 ESE -
13.01.2019 06:00:00 -1,0 -1,2 0 0 10 5 N 0,0
13.01.2019 05:00:00 -0,8 -1,0 8 4 12 6 E 0,0
13.01.2019 04:00:00 -0,7 -0,7 5 3 13 7 E 0,0
13.01.2019 03:00:00 0,0 0,0 3 2 11 6 E 0,0
13.01.2019 02:00:00 -1,4 -1,4 0 0 0 0 N 0,0
13.01.2019 01:00:00 -1,0 -1,2 0 0 0 0 N -
13.01.2019 00:00:00 -0,3 -0,5 0 0 0 0 N 0,0
12.01.2019 23:00:00 0,1 -0,3 0 0 0 0 N 0,0
12.01.2019 22:00:00 0,0 -1,0 0 0 0 0 N 0,0
12.01.2019 21:00:00 2,4 0,2 0 0 0 0 N 0,0
12.01.2019 20:00:00 2,1 -0,3 0 0 0 0 N 0,0
12.01.2019 19:00:00 3,7 -0,5 0 0 0 0 N -
12.01.2019 18:00:00 10,5 -0,7 0 0 7 4 N 0,0
12.01.2019 17:00:00 13,2 0,2 1 1 14 8 E 0,0
12.01.2019 16:00:00 13,3 0,0 5 3 18 10 E 0,0
12.01.2019 15:00:00 13,1 -0,3 6 4 19 10 ENE 0,0
12.01.2019 14:00:00 11,7 -0,7 8 4 18 10 NE 0,0
12.01.2019 13:00:00 10,8 -1,0 3 1 14 8 ENE -
12.01.2019 12:00:00 7,9 -0,5 2 1 11 6 ENE 0,0

tt = Température de l'air
td = dewpoint
ff = Vitesse du vent
fx = gusts
dd = Direction du vent
rr = Quantités de précipitations

stations d'obs. à proximité